Time;durP1;ratioP1;P1;durP2;ratioP2;P2;SDS_P1;SDS_P2;PMS_P1;PMS_P2;Temp;Humidity;BMP_temperature;BMP_pressure;BME280_temperature;BME280_humidity;BME280_pressure;Samples;Min_cycle;Max_cycle;Signal;HPM_P1;HPM_P2
2023/10/02 00:01:36;;;;;;;3.67;1.13;;;;;;;;;;4979177;28;20042;-62
2023/10/02 00:03:39;;;;;;;2.70;0.90;;;;;;;;;;4980424;28;21417;-61
2023/10/02 00:06:06;;;;;;;3.75;1.50;;;;;;;;;;4979382;28;20414;-62
2023/10/02 00:08:40;;;;;;;3.92;1.20;;;;;;;;;;4976642;28;20084;-64
2023/10/02 00:14:19;;;;;;;2.80;0.93;;;;;;;;;;4985487;28;20076;-63
2023/10/02 00:16:58;;;;;;;3.50;1.00;;;;;;;;;;4978586;28;20050;-62
2023/10/02 00:19:30;;;;;;;2.80;1.00;;;;;;;;;;4978351;28;20041;-61
2023/10/02 00:22:05;;;;;;;2.80;1.10;;;;;;;;;;4993799;28;21450;-67
2023/10/02 00:24:33;;;;;;;3.53;1.20;;;;;;;;;;4977655;28;20034;-64
2023/10/02 00:27:01;;;;;;;2.78;1.00;;;;;;;;;;4978010;28;20042;-62
2023/10/02 00:29:28;;;;;;;3.47;1.13;;;;;;;;;;4978526;28;20054;-61
2023/10/02 00:31:55;;;;;;;4.15;1.25;;;;;;;;;;4979712;28;20050;-63
2023/10/02 00:34:30;;;;;;;3.00;1.10;;;;;;;;;;4978177;28;20583;-63
2023/10/02 00:37:05;;;;;;;3.78;1.30;;;;;;;;;;4978582;28;20146;-64
2023/10/02 00:39:36;;;;;;;3.78;1.67;;;;;;;;;;4979127;28;20054;-60
2023/10/02 00:42:16;;;;;;;3.53;1.35;;;;;;;;;;4979012;28;20045;-61
2023/10/02 00:44:55;;;;;;;3.10;1.20;;;;;;;;;;5008151;28;20034;-64
2023/10/02 00:47:45;;;;;;;3.13;1.25;;;;;;;;;;4976973;28;20042;-68
2023/10/02 00:50:16;;;;;;;4.07;1.40;;;;;;;;;;4978200;28;20062;-60
2023/10/02 00:52:44;;;;;;;4.10;1.45;;;;;;;;;;4988038;28;20509;-62
2023/10/02 00:55:15;;;;;;;3.60;1.20;;;;;;;;;;4987086;28;20042;-62
2023/10/02 00:57:42;;;;;;;3.10;1.20;;;;;;;;;;4976009;28;20423;-62
2023/10/02 01:00:17;;;;;;;3.22;1.20;;;;;;;;;;4976660;28;20034;-65
2023/10/02 01:02:48;;;;;;;3.97;1.23;;;;;;;;;;4976218;28;20046;-64
2023/10/02 01:05:21;;;;;;;4.20;1.33;;;;;;;;;;4978502;28;20464;-63
2023/10/02 01:07:53;;;;;;;4.30;1.45;;;;;;;;;;4975849;28;20105;-65
2023/10/02 01:10:20;;;;;;;3.75;1.33;;;;;;;;;;4977592;28;20037;-65
2023/10/02 01:12:49;;;;;;;2.75;1.23;;;;;;;;;;4976687;28;20097;-64
2023/10/02 01:15:26;;;;;;;5.60;1.17;;;;;;;;;;4972424;28;20037;-64
2023/10/02 01:17:53;;;;;;;4.25;1.45;;;;;;;;;;4978935;28;20050;-62
2023/10/02 01:20:39;;;;;;;4.75;1.27;;;;;;;;;;4976788;28;20060;-63
2023/10/02 01:23:16;;;;;;;6.40;1.60;;;;;;;;;;4981426;28;20074;-63
2023/10/02 01:25:44;;;;;;;6.53;1.30;;;;;;;;;;4977769;28;20086;-62
2023/10/02 01:28:13;;;;;;;4.05;1.60;;;;;;;;;;4978001;28;20095;-61
2023/10/02 01:30:47;;;;;;;5.68;1.67;;;;;;;;;;4976859;28;20058;-62
2023/10/02 01:33:26;;;;;;;7.28;1.80;;;;;;;;;;4975985;28;20185;-63
2023/10/02 01:35:56;;;;;;;3.13;1.23;;;;;;;;;;4983996;28;20732;-64
2023/10/02 01:38:30;;;;;;;3.97;1.55;;;;;;;;;;4975846;28;20060;-63
2023/10/02 01:41:04;;;;;;;4.38;1.90;;;;;;;;;;4983400;28;20201;-63
2023/10/02 01:43:49;;;;;;;5.22;2.45;;;;;;;;;;4974847;28;20043;-62
2023/10/02 01:46:22;;;;;;;3.63;1.30;;;;;;;;;;4975683;28;20093;-63
2023/10/02 01:48:50;;;;;;;4.07;1.63;;;;;;;;;;4983865;28;20042;-62
2023/10/02 01:51:27;;;;;;;3.30;1.55;;;;;;;;;;4976396;28;20065;-63
2023/10/02 01:53:58;;;;;;;3.83;1.67;;;;;;;;;;4975490;28;20085;-63
2023/10/02 01:56:26;;;;;;;4.13;1.70;;;;;;;;;;4975888;28;20113;-61
2023/10/02 01:58:53;;;;;;;4.47;1.85;;;;;;;;;;4977740;28;20034;-63
2023/10/02 02:01:23;;;;;;;3.55;1.73;;;;;;;;;;4977454;28;20042;-63
2023/10/02 02:03:51;;;;;;;3.72;1.77;;;;;;;;;;4976769;28;20137;-63
2023/10/02 02:06:22;;;;;;;4.25;1.83;;;;;;;;;;4976568;28;20172;-62
2023/10/02 02:09:22;;;;;;;3.55;1.60;;;;;;;;;;4981437;28;20125;-63
2023/10/02 02:11:44;;;;;;;5.57;2.40;;;;;;;;;;4976176;28;20042;-64
2023/10/02 02:14:10;;;;;;;4.10;1.92;;;;;;;;;;4975274;28;20125;-64
2023/10/02 02:16:38;;;;;;;4.80;1.95;;;;;;;;;;4975794;28;20038;-63
2023/10/02 02:19:10;;;;;;;4.57;1.75;;;;;;;;;;4977956;28;20336;-63
2023/10/02 02:21:38;;;;;;;5.75;2.00;;;;;;;;;;4992111;28;20097;-64
2023/10/02 02:24:08;;;;;;;4.95;2.05;;;;;;;;;;4976577;28;20059;-64
2023/10/02 02:26:36;;;;;;;4.35;2.05;;;;;;;;;;4976711;28;20073;-63
2023/10/02 02:29:03;;;;;;;4.95;2.00;;;;;;;;;;4977584;28;20478;-62
2023/10/02 02:31:30;;;;;;;4.63;2.20;;;;;;;;;;4978077;28;20057;-63
2023/10/02 02:33:59;;;;;;;4.20;2.15;;;;;;;;;;4976017;28;20058;-63
2023/10/02 02:36:27;;;;;;;4.28;2.40;;;;;;;;;;4976091;28;20390;-64
2023/10/02 02:39:21;;;;;;;4.50;2.05;;;;;;;;;;4977581;28;20030;-63
2023/10/02 02:41:45;;;;;;;3.85;1.95;;;;;;;;;;4976350;28;20389;-63
2023/10/02 02:44:39;;;;;;;5.60;2.08;;;;;;;;;;4974991;28;20121;-61
2023/10/02 02:47:10;;;;;;;4.82;2.17;;;;;;;;;;4982123;28;20037;-62
2023/10/02 02:49:51;;;;;;;4.80;2.47;;;;;;;;;;4975945;28;20058;-58
2023/10/02 02:52:24;;;;;;;4.10;2.10;;;;;;;;;;4977316;28;20053;-63
2023/10/02 02:54:58;;;;;;;7.93;2.33;;;;;;;;;;4975550;28;20042;-62
2023/10/02 02:57:29;;;;;;;3.80;2.08;;;;;;;;;;4979423;28;20096;-62
2023/10/02 03:02:46;;;;;;;4.50;2.22;;;;;;;;;;4978338;28;20148;-62
2023/10/02 03:05:13;;;;;;;5.10;2.33;;;;;;;;;;4978821;28;20034;-63
2023/10/02 03:07:42;;;;;;;7.80;2.42;;;;;;;;;;4980126;28;20047;-61
2023/10/02 03:10:14;;;;;;;3.70;1.98;;;;;;;;;;4980402;28;20042;-61
2023/10/02 03:12:47;;;;;;;4.80;2.42;;;;;;;;;;4979837;28;20696;-60
2023/10/02 03:15:45;;;;;;;5.07;2.28;;;;;;;;;;4981535;28;20117;-63
2023/10/02 03:18:54;;;;;;;7.30;2.78;;;;;;;;;;4984522;28;20057;-64
2023/10/02 03:20:56;;;;;;;6.28;2.60;;;;;;;;;;4982516;28;20043;-65
2023/10/02 03:23:27;;;;;;;6.18;2.60;;;;;;;;;;4979062;28;20511;-63
2023/10/02 03:25:58;;;;;;;5.50;2.60;;;;;;;;;;4981587;28;20720;-65
2023/10/02 03:28:27;;;;;;;5.80;2.85;;;;;;;;;;4981378;28;21427;-62
2023/10/02 03:30:57;;;;;;;5.47;2.55;;;;;;;;;;4980276;28;20140;-63
2023/10/02 03:33:30;;;;;;;4.85;2.88;;;;;;;;;;4980716;28;20169;-64
2023/10/02 03:35:58;;;;;;;4.88;2.58;;;;;;;;;;4981498;28;20391;-64
2023/10/02 03:38:25;;;;;;;5.97;3.05;;;;;;;;;;4980418;28;20590;-64
2023/10/02 03:40:58;;;;;;;4.50;2.58;;;;;;;;;;4981075;28;20501;-65
2023/10/02 03:43:34;;;;;;;6.45;2.90;;;;;;;;;;4979441;28;20042;-64
2023/10/02 03:46:04;;;;;;;5.93;3.33;;;;;;;;;;4979838;28;20041;-64
2023/10/02 03:48:30;;;;;;;5.55;2.95;;;;;;;;;;4979764;28;20255;-63
2023/10/02 03:50:57;;;;;;;7.30;3.60;;;;;;;;;;4979376;28;20048;-62
2023/10/02 03:53:30;;;;;;;5.72;3.38;;;;;;;;;;4978796;28;20393;-66
2023/10/02 03:56:47;;;;;;;6.20;3.35;;;;;;;;;;4980090;28;20054;-60
2023/10/02 03:58:54;;;;;;;5.47;3.25;;;;;;;;;;4985474;28;20058;-65
2023/10/02 04:01:30;;;;;;;6.03;3.63;;;;;;;;;;4981178;28;20042;-63
2023/10/02 04:04:19;;;;;;;5.72;3.25;;;;;;;;;;4978360;28;20601;-64
2023/10/02 04:06:44;;;;;;;6.93;3.90;;;;;;;;;;4980347;28;20145;-65
2023/10/02 04:09:21;;;;;;;7.20;3.50;;;;;;;;;;4979032;28;20061;-63
2023/10/02 04:11:50;;;;;;;6.30;3.83;;;;;;;;;;5002421;28;20050;-65
2023/10/02 04:14:31;;;;;;;6.20;3.67;;;;;;;;;;4978984;28;20030;-64
2023/10/02 04:17:09;;;;;;;5.53;3.45;;;;;;;;;;4984194;28;20534;-64
2023/10/02 04:19:36;;;;;;;7.40;4.38;;;;;;;;;;4984155;28;20084;-64
2023/10/02 04:22:06;;;;;;;7.68;4.22;;;;;;;;;;4981112;28;20337;-64
2023/10/02 04:24:54;;;;;;;8.05;4.35;;;;;;;;;;4977309;28;20121;-64
2023/10/02 04:32:39;;;;;;;7.35;4.65;;;;;;;;;;4977351;28;20679;-61
2023/10/02 04:35:40;;;;;;;8.30;4.80;;;;;;;;;;4978882;28;20046;-63
2023/10/02 04:37:59;;;;;;;9.27;4.47;;;;;;;;;;4976702;28;20073;-63
2023/10/02 04:40:44;;;;;;;9.50;4.55;;;;;;;;;;4978159;28;20492;-61
2023/10/02 04:43:23;;;;;;;7.50;4.45;;;;;;;;;;4976297;28;20050;-61
2023/10/02 04:45:52;;;;;;;7.82;4.45;;;;;;;;;;4984759;28;20169;-62
2023/10/02 04:48:27;;;;;;;7.20;4.28;;;;;;;;;;4977978;28;20128;-63
2023/10/02 04:50:56;;;;;;;8.57;5.03;;;;;;;;;;4978922;28;20043;-64
2023/10/02 04:53:23;;;;;;;8.40;4.22;;;;;;;;;;4978493;28;20116;-65
2023/10/02 04:56:07;;;;;;;8.63;4.97;;;;;;;;;;4977501;28;20041;-63
2023/10/02 04:58:39;;;;;;;9.43;5.07;;;;;;;;;;4977701;28;20455;-63
2023/10/02 05:03:37;;;;;;;9.43;5.00;;;;;;;;;;4979054;28;20038;-64
2023/10/02 05:06:04;;;;;;;9.23;5.28;;;;;;;;;;4979457;28;20696;-62
2023/10/02 05:08:37;;;;;;;9.02;5.13;;;;;;;;;;4979414;28;20585;-63
2023/10/02 05:11:06;;;;;;;7.57;4.88;;;;;;;;;;4994706;28;20515;-65
2023/10/02 05:13:59;;;;;;;8.65;5.50;;;;;;;;;;4978076;28;20038;-63
2023/10/02 05:16:40;;;;;;;8.13;5.10;;;;;;;;;;4977726;28;20120;-63
2023/10/02 05:19:08;;;;;;;11.20;5.93;;;;;;;;;;4978710;28;20081;-64
2023/10/02 05:21:55;;;;;;;8.35;5.30;;;;;;;;;;4977033;28;20049;-64
2023/10/02 05:24:21;;;;;;;9.52;5.82;;;;;;;;;;4978377;28;20065;-64
2023/10/02 05:26:48;;;;;;;10.90;6.13;;;;;;;;;;4980826;28;20039;-62
2023/10/02 05:29:36;;;;;;;10.63;6.18;;;;;;;;;;4979237;28;20085;-62
2023/10/02 05:32:23;;;;;;;10.82;6.30;;;;;;;;;;4972957;28;20073;-61
2023/10/02 05:35:04;;;;;;;10.70;6.47;;;;;;;;;;4998952;28;20133;-64
2023/10/02 05:37:32;;;;;;;10.55;6.32;;;;;;;;;;4978178;28;20187;-64
2023/10/02 05:43:09;;;;;;;15.02;6.78;;;;;;;;;;4978696;28;20038;-62
2023/10/02 05:45:50;;;;;;;10.75;6.47;;;;;;;;;;4977923;28;20116;-63
2023/10/02 05:50:59;;;;;;;11.52;7.40;;;;;;;;;;4977966;28;20066;-64
2023/10/02 05:53:32;;;;;;;10.35;6.72;;;;;;;;;;4975746;28;20233;-66
2023/10/02 05:58:41;;;;;;;9.45;6.25;;;;;;;;;;4976994;28;19926;-61
2023/10/02 06:01:26;;;;;;;10.57;6.07;;;;;;;;;;5008978;28;20061;-61
2023/10/02 06:04:00;;;;;;;9.75;6.63;;;;;;;;;;4976025;28;20096;-62
2023/10/02 06:06:35;;;;;;;10.93;6.57;;;;;;;;;;4977558;28;20213;-63
2023/10/02 06:09:03;;;;;;;13.48;6.72;;;;;;;;;;4983282;28;20049;-62
2023/10/02 06:11:34;;;;;;;11.15;6.63;;;;;;;;;;4978548;28;20030;-62
2023/10/02 06:14:10;;;;;;;14.45;6.72;;;;;;;;;;4992781;28;20522;-61
2023/10/02 06:16:40;;;;;;;10.13;6.75;;;;;;;;;;4992068;28;20042;-63
2023/10/02 06:19:13;;;;;;;10.35;6.60;;;;;;;;;;4978456;28;20796;-62
2023/10/02 06:22:00;;;;;;;10.50;6.65;;;;;;;;;;4977330;28;20472;-61
2023/10/02 06:24:30;;;;;;;16.38;7.65;;;;;;;;;;4976508;28;20391;-61
2023/10/02 06:26:57;;;;;;;22.02;6.72;;;;;;;;;;4976914;28;20046;-61
2023/10/02 06:29:35;;;;;;;9.68;6.25;;;;;;;;;;4976488;28;20668;-61
2023/10/02 06:32:05;;;;;;;14.48;7.13;;;;;;;;;;4980110;28;20038;-64
2023/10/02 06:34:38;;;;;;;9.85;6.60;;;;;;;;;;4980740;28;20096;-62
2023/10/02 06:37:11;;;;;;;10.07;6.68;;;;;;;;;;4980926;28;20054;-61
2023/10/02 06:39:39;;;;;;;10.07;7.15;;;;;;;;;;4980727;28;20772;-63
2023/10/02 06:42:07;;;;;;;12.07;7.50;;;;;;;;;;4980880;28;20495;-62
2023/10/02 06:44:53;;;;;;;11.65;7.18;;;;;;;;;;4979411;28;20454;-63
2023/10/02 06:47:22;;;;;;;13.70;7.63;;;;;;;;;;4983013;28;20450;-64
2023/10/02 06:49:52;;;;;;;11.75;7.35;;;;;;;;;;4979734;28;20069;-63
2023/10/02 06:52:20;;;;;;;12.55;7.60;;;;;;;;;;4980850;28;20046;-61
2023/10/02 06:54:55;;;;;;;13.30;7.13;;;;;;;;;;4980017;28;20050;-62
2023/10/02 06:57:24;;;;;;;11.88;6.72;;;;;;;;;;4977295;28;20057;-61
2023/10/02 06:59:51;;;;;;;12.27;7.50;;;;;;;;;;4979916;28;20096;-63
2023/10/02 07:02:26;;;;;;;9.02;6.82;;;;;;;;;;4978810;28;20630;-63
2023/10/02 07:04:54;;;;;;;12.85;7.18;;;;;;;;;;4980541;28;20097;-60
2023/10/02 07:07:26;;;;;;;11.30;7.38;;;;;;;;;;4999026;28;20445;-64
2023/10/02 07:10:12;;;;;;;12.07;7.28;;;;;;;;;;4979840;28;20042;-63
2023/10/02 07:12:40;;;;;;;11.43;6.35;;;;;;;;;;4978456;28;20388;-62
2023/10/02 07:15:20;;;;;;;10.05;6.25;;;;;;;;;;5011186;28;20031;-63
2023/10/02 07:17:59;;;;;;;10.02;5.63;;;;;;;;;;4977551;28;20625;-63
2023/10/02 07:20:42;;;;;;;10.02;6.05;;;;;;;;;;4994638;28;20038;-61
2023/10/02 07:23:19;;;;;;;9.13;5.90;;;;;;;;;;4994499;28;20371;-63
2023/10/02 07:25:52;;;;;;;11.23;6.22;;;;;;;;;;4979916;28;20046;-62
2023/10/02 07:28:21;;;;;;;9.73;5.57;;;;;;;;;;4979434;28;20483;-61
2023/10/02 07:30:50;;;;;;;9.73;5.80;;;;;;;;;;4987674;28;20059;-62
2023/10/02 07:33:19;;;;;;;8.23;4.78;;;;;;;;;;4975383;28;20144;-59
2023/10/02 07:35:56;;;;;;;8.45;5.47;;;;;;;;;;4987014;28;20495;-61
2023/10/02 07:38:29;;;;;;;8.20;5.18;;;;;;;;;;4977933;28;20065;-61
2023/10/02 07:41:06;;;;;;;8.13;4.82;;;;;;;;;;4980569;28;20049;-63
2023/10/02 07:43:33;;;;;;;8.05;4.80;;;;;;;;;;4977741;28;20097;-61
2023/10/02 07:46:15;;;;;;;7.88;4.75;;;;;;;;;;4979300;28;20185;-62
2023/10/02 07:48:43;;;;;;;7.88;4.97;;;;;;;;;;4978012;28;20060;-63
2023/10/02 07:51:09;;;;;;;6.47;4.57;;;;;;;;;;4978995;28;20053;-62
2023/10/02 07:53:39;;;;;;;7.63;4.60;;;;;;;;;;4977273;28;20035;-62
2023/10/02 07:56:07;;;;;;;7.68;4.65;;;;;;;;;;4976724;28;20451;-61
2023/10/02 07:58:35;;;;;;;7.30;4.45;;;;;;;;;;4977049;28;20057;-63
2023/10/02 08:01:12;;;;;;;8.32;5.13;;;;;;;;;;4978552;28;20042;-61
2023/10/02 08:03:49;;;;;;;10.20;4.68;;;;;;;;;;4979352;28;20514;-61
2023/10/02 08:11:49;;;;;;;8.05;5.15;;;;;;;;;;4973158;28;20096;-62
2023/10/02 08:14:38;;;;;;;8.90;5.63;;;;;;;;;;4982172;28;20713;-61
2023/10/02 08:19:56;;;;;;;9.45;5.45;;;;;;;;;;4977120;28;20041;-63
2023/10/02 08:22:51;;;;;;;9.93;5.45;;;;;;;;;;4977492;28;21380;-63
2023/10/02 08:25:14;;;;;;;9.02;5.47;;;;;;;;;;4978251;28;20038;-61
2023/10/02 08:27:55;;;;;;;8.68;5.30;;;;;;;;;;5009382;28;20172;-60
2023/10/02 08:30:32;;;;;;;9.48;5.88;;;;;;;;;;4977768;28;20133;-63
2023/10/02 08:33:09;;;;;;;9.70;6.05;;;;;;;;;;4978278;28;20115;-60
2023/10/02 08:35:46;;;;;;;10.32;6.15;;;;;;;;;;4978064;28;20080;-62
2023/10/02 08:38:21;;;;;;;9.27;5.95;;;;;;;;;;4994504;28;20776;-60
2023/10/02 08:40:57;;;;;;;11.48;6.50;;;;;;;;;;4984918;28;20041;-63
2023/10/02 08:43:27;;;;;;;9.98;6.43;;;;;;;;;;4977538;28;20042;-63
2023/10/02 08:45:54;;;;;;;10.48;6.47;;;;;;;;;;4979611;28;20069;-63
2023/10/02 08:48:25;;;;;;;9.18;5.93;;;;;;;;;;4978906;28;20412;-63
2023/10/02 08:50:58;;;;;;;10.60;6.57;;;;;;;;;;4978991;28;20114;-63
2023/10/02 08:53:26;;;;;;;12.25;6.53;;;;;;;;;;4978396;28;20074;-61
2023/10/02 08:56:04;;;;;;;12.00;6.85;;;;;;;;;;4980535;28;21318;-64
2023/10/02 08:58:31;;;;;;;9.63;6.60;;;;;;;;;;4978920;28;20210;-62
2023/10/02 09:03:46;;;;;;;10.32;6.53;;;;;;;;;;4976193;28;20033;-60
2023/10/02 09:06:27;;;;;;;11.00;6.85;;;;;;;;;;5010789;28;20042;-63
2023/10/02 09:09:16;;;;;;;12.45;7.70;;;;;;;;;;4976818;28;20088;-62
2023/10/02 09:11:51;;;;;;;14.52;7.80;;;;;;;;;;4976911;28;20132;-63
2023/10/02 09:20:00;;;;;;;14.52;7.30;;;;;;;;;;4976639;28;20096;-62
2023/10/02 09:22:27;;;;;;;12.70;8.27;;;;;;;;;;5007901;28;20050;-63
2023/10/02 09:25:09;;;;;;;11.73;7.80;;;;;;;;;;4977439;28;20050;-61
2023/10/02 09:27:41;;;;;;;15.73;9.02;;;;;;;;;;4975253;28;20041;-61
2023/10/02 09:32:57;;;;;;;14.50;9.05;;;;;;;;;;4975749;28;20878;-62
2023/10/02 09:38:24;;;;;;;17.33;9.43;;;;;;;;;;4976404;28;20053;-63
2023/10/02 09:41:24;;;;;;;21.80;11.38;;;;;;;;;;4991836;28;20041;-62
2023/10/02 09:43:44;;;;;;;18.27;10.80;;;;;;;;;;4978247;28;20057;-61
2023/10/02 09:46:16;;;;;;;21.48;11.52;;;;;;;;;;4977529;28;20112;-62
2023/10/02 09:49:03;;;;;;;22.23;12.35;;;;;;;;;;4976780;28;20080;-62
2023/10/02 09:52:09;;;;;;;22.95;12.02;;;;;;;;;;4979013;28;20527;-60
2023/10/02 09:54:40;;;;;;;19.75;11.82;;;;;;;;;;4973518;28;20049;-61
2023/10/02 09:57:18;;;;;;;18.92;11.40;;;;;;;;;;4992034;28;20074;-61
2023/10/02 09:59:48;;;;;;;19.95;10.75;;;;;;;;;;4976548;28;20061;-61
2023/10/02 10:02:49;;;;;;;44.25;11.20;;;;;;;;;;4977510;28;20042;-61
2023/10/02 10:08:18;;;;;;;71.72;11.38;;;;;;;;;;4981042;28;20050;-61
2023/10/02 10:10:49;;;;;;;29.75;10.70;;;;;;;;;;4979939;28;20046;-60
2023/10/02 10:13:26;;;;;;;27.02;10.48;;;;;;;;;;4980721;28;20053;-60
2023/10/02 10:16:11;;;;;;;42.75;12.55;;;;;;;;;;4980224;28;20038;-61
2023/10/02 10:21:56;;;;;;;29.58;11.32;;;;;;;;;;4979607;28;20204;-63
2023/10/02 10:27:41;;;;;;;28.98;11.77;;;;;;;;;;4980697;28;20291;-61
2023/10/02 10:30:33;;;;;;;33.35;11.63;;;;;;;;;;4980778;28;20052;-61
2023/10/02 10:35:37;;;;;;;68.63;12.20;;;;;;;;;;4981172;28;20045;-62
2023/10/02 10:38:34;;;;;;;39.97;12.10;;;;;;;;;;4981793;28;20069;-63
2023/10/02 10:41:01;;;;;;;69.38;13.00;;;;;;;;;;4981424;28;20038;-62
2023/10/02 10:46:30;;;;;;;87.55;12.15;;;;;;;;;;4981836;28;20045;-62
2023/10/02 10:52:00;;;;;;;54.33;12.68;;;;;;;;;;4985591;28;20047;-62
2023/10/02 10:54:27;;;;;;;59.20;12.00;;;;;;;;;;4979502;28;20180;-62
2023/10/02 10:57:22;;;;;;;86.30;14.93;;;;;;;;;;4980574;28;20121;-61
2023/10/02 11:00:23;;;;;;;164.07;17.10;;;;;;;;;;4985685;28;20517;-62
2023/10/02 11:03:19;;;;;;;144.98;15.85;;;;;;;;;;4992553;28;20051;-61
2023/10/02 11:05:46;;;;;;;87.75;16.15;;;;;;;;;;4984248;28;20045;-62
2023/10/02 11:08:28;;;;;;;80.88;15.25;;;;;;;;;;4978382;28;20046;-61
2023/10/02 11:11:30;;;;;;;38.75;13.95;;;;;;;;;;4978876;28;20092;-61
2023/10/02 11:14:00;;;;;;;61.00;15.25;;;;;;;;;;4986874;28;20038;-63
2023/10/02 11:16:31;;;;;;;130.07;16.33;;;;;;;;;;4980044;28;20042;-62
2023/10/02 11:19:21;;;;;;;112.97;15.00;;;;;;;;;;4978454;28;20051;-61
2023/10/02 11:22:25;;;;;;;88.57;14.95;;;;;;;;;;4980363;28;20077;-62
2023/10/02 11:24:54;;;;;;;156.48;16.80;;;;;;;;;;4979055;28;20049;-66
2023/10/02 11:27:22;;;;;;;90.00;13.52;;;;;;;;;;4994878;28;20030;-64
2023/10/02 11:30:02;;;;;;;90.95;13.68;;;;;;;;;;4980563;28;20058;-62
2023/10/02 11:32:53;;;;;;;85.70;13.27;;;;;;;;;;4978883;28;20061;-64
2023/10/02 11:35:21;;;;;;;89.72;12.60;;;;;;;;;;4981073;28;20045;-63
2023/10/02 11:37:48;;;;;;;118.32;14.05;;;;;;;;;;4979870;28;20415;-62
2023/10/02 11:40:15;;;;;;;78.35;13.07;;;;;;;;;;4980630;28;20053;-63
2023/10/02 11:42:42;;;;;;;97.50;13.55;;;;;;;;;;4978605;28;20037;-65
2023/10/02 11:45:11;;;;;;;134.52;13.77;;;;;;;;;;4995792;28;20112;-64
2023/10/02 11:47:38;;;;;;;57.50;12.75;;;;;;;;;;4979000;28;20622;-62
2023/10/02 11:50:05;;;;;;;86.32;12.43;;;;;;;;;;4979029;28;20524;-63
2023/10/02 11:52:32;;;;;;;73.22;12.30;;;;;;;;;;4978662;28;20387;-62
2023/10/02 11:54:59;;;;;;;88.18;12.13;;;;;;;;;;4980241;28;20090;-61
2023/10/02 11:57:25;;;;;;;61.88;10.10;;;;;;;;;;4992510;28;20454;-63
2023/10/02 11:59:52;;;;;;;61.88;9.57;;;;;;;;;;4979897;28;20045;-63
2023/10/02 12:02:19;;;;;;;57.65;9.73;;;;;;;;;;4976375;28;20451;-63
2023/10/02 12:04:46;;;;;;;63.80;8.45;;;;;;;;;;4977197;28;20050;-63
2023/10/02 12:07:16;;;;;;;49.78;8.90;;;;;;;;;;4979387;28;20049;-61
2023/10/02 12:09:47;;;;;;;34.55;8.05;;;;;;;;;;4980301;28;20427;-63
2023/10/02 12:12:14;;;;;;;53.15;8.23;;;;;;;;;;4978370;28;20506;-63
2023/10/02 12:14:45;;;;;;;58.75;8.57;;;;;;;;;;4978214;28;20049;-61
2023/10/02 12:17:14;;;;;;;43.97;7.40;;;;;;;;;;4993123;28;20042;-63
2023/10/02 12:19:42;;;;;;;36.28;7.43;;;;;;;;;;4992448;28;20478;-63
2023/10/02 12:22:09;;;;;;;60.47;8.00;;;;;;;;;;4980643;28;20042;-63
2023/10/02 12:24:36;;;;;;;51.65;7.93;;;;;;;;;;4977611;28;20514;-62
2023/10/02 12:27:11;;;;;;;68.95;8.02;;;;;;;;;;4992667;28;20554;-62
2023/10/02 12:29:38;;;;;;;92.95;8.95;;;;;;;;;;4976664;28;20061;-63
2023/10/02 12:32:27;;;;;;;55.33;8.10;;;;;;;;;;5029888;28;20041;-65
2023/10/02 12:35:16;;;;;;;72.07;8.25;;;;;;;;;;4994291;28;20506;-65
2023/10/02 12:37:43;;;;;;;92.88;8.65;;;;;;;;;;4975773;28;20515;-63
2023/10/02 12:40:12;;;;;;;105.88;8.10;;;;;;;;;;4977301;28;20041;-67
2023/10/02 12:42:39;;;;;;;69.32;7.35;;;;;;;;;;4989971;28;21486;-63
2023/10/02 12:45:06;;;;;;;103.50;8.13;;;;;;;;;;4994437;28;20037;-63
2023/10/02 12:47:36;;;;;;;108.80;8.60;;;;;;;;;;4993895;28;20045;-63
2023/10/02 12:50:10;;;;;;;53.33;7.88;;;;;;;;;;4992885;28;20121;-64
2023/10/02 12:52:37;;;;;;;89.68;8.10;;;;;;;;;;4993630;28;20574;-64
2023/10/02 12:55:05;;;;;;;66.75;8.00;;;;;;;;;;4993925;28;20158;-63
2023/10/02 12:57:33;;;;;;;94.97;8.73;;;;;;;;;;4992493;28;20209;-66
2023/10/02 13:00:00;;;;;;;51.67;7.15;;;;;;;;;;4994433;28;20716;-64
2023/10/02 13:02:26;;;;;;;68.38;7.63;;;;;;;;;;4991808;28;20041;-66
2023/10/02 13:04:54;;;;;;;81.22;9.18;;;;;;;;;;4974749;28;20049;-66
2023/10/02 13:07:21;;;;;;;81.07;8.00;;;;;;;;;;4972179;28;20141;-63
2023/10/02 13:09:48;;;;;;;58.03;7.68;;;;;;;;;;4974723;28;20431;-64
2023/10/02 13:12:16;;;;;;;50.10;7.05;;;;;;;;;;4980550;28;20042;-63
2023/10/02 13:14:43;;;;;;;57.38;7.47;;;;;;;;;;4974003;28;20164;-64
2023/10/02 13:17:11;;;;;;;55.97;9.07;;;;;;;;;;4978490;28;20173;-64
2023/10/02 13:19:38;;;;;;;27.73;6.95;;;;;;;;;;4977154;28;20046;-63
2023/10/02 13:22:04;;;;;;;26.02;7.30;;;;;;;;;;4977263;28;20344;-63
2023/10/02 13:24:31;;;;;;;28.15;7.78;;;;;;;;;;4976013;28;20078;-66
2023/10/02 13:26:58;;;;;;;24.15;7.50;;;;;;;;;;4978134;28;20535;-62
2023/10/02 13:29:25;;;;;;;24.38;8.20;;;;;;;;;;4976961;28;20073;-63
2023/10/02 13:31:52;;;;;;;13.77;6.95;;;;;;;;;;4978444;28;20038;-63
2023/10/02 13:34:18;;;;;;;18.83;6.78;;;;;;;;;;4993415;28;20520;-61
2023/10/02 13:36:46;;;;;;;12.98;6.22;;;;;;;;;;4977576;28;20077;-62
2023/10/02 13:39:17;;;;;;;12.77;6.80;;;;;;;;;;4978664;28;20133;-69
2023/10/02 13:41:45;;;;;;;14.35;6.03;;;;;;;;;;4979500;28;20471;-63
2023/10/02 13:44:11;;;;;;;12.75;6.40;;;;;;;;;;4980506;28;20440;-63
2023/10/02 13:46:38;;;;;;;17.30;6.55;;;;;;;;;;4977533;28;20057;-64
2023/10/02 13:49:05;;;;;;;15.48;6.47;;;;;;;;;;4977033;28;20339;-62
2023/10/02 13:51:31;;;;;;;18.58;7.00;;;;;;;;;;4976418;28;20046;-62
2023/10/02 13:53:58;;;;;;;15.48;6.60;;;;;;;;;;4977216;28;20038;-64
2023/10/02 13:56:25;;;;;;;17.33;6.72;;;;;;;;;;4976890;28;20065;-65
2023/10/02 13:58:53;;;;;;;16.67;7.30;;;;;;;;;;4976169;28;20062;-64
2023/10/02 14:01:21;;;;;;;14.95;6.60;;;;;;;;;;4977057;28;20034;-63
2023/10/02 14:03:51;;;;;;;15.52;6.30;;;;;;;;;;4978104;28;20035;-63
2023/10/02 14:06:18;;;;;;;16.73;6.05;;;;;;;;;;4978375;28;20031;-63
2023/10/02 14:08:45;;;;;;;14.75;5.60;;;;;;;;;;4978744;28;20049;-67
2023/10/02 14:11:19;;;;;;;11.10;6.15;;;;;;;;;;4979677;28;20077;-62
2023/10/02 14:13:48;;;;;;;;;;;;;;;;;;4978864;28;20034;-63
2023/10/02 14:16:16;;;;;;;11.13;5.45;;;;;;;;;;4977688;28;20375;-61
2023/10/02 14:18:43;;;;;;;10.75;5.13;;;;;;;;;;4977047;28;20062;-61
2023/10/02 14:21:10;;;;;;;8.75;5.15;;;;;;;;;;4977840;28;20089;-62
2023/10/02 14:23:37;;;;;;;7.93;4.05;;;;;;;;;;4977194;28;20077;-63
2023/10/02 14:26:08;;;;;;;12.20;4.47;;;;;;;;;;4977311;28;20454;-63
2023/10/02 14:28:35;;;;;;;9.65;4.57;;;;;;;;;;4976436;28;20533;-63
2023/10/02 14:31:02;;;;;;;8.15;4.30;;;;;;;;;;4985225;28;20415;-63
2023/10/02 14:33:29;;;;;;;7.05;3.75;;;;;;;;;;4976831;28;20061;-63
2023/10/02 14:35:57;;;;;;;7.75;4.03;;;;;;;;;;4977105;28;20440;-63
2023/10/02 14:38:24;;;;;;;8.18;3.70;;;;;;;;;;4976338;28;20047;-63
2023/10/02 14:40:53;;;;;;;6.35;3.53;;;;;;;;;;4975274;28;20185;-66
2023/10/02 14:43:20;;;;;;;10.85;3.15;;;;;;;;;;4976691;28;20042;-62
2023/10/02 14:45:47;;;;;;;8.32;3.80;;;;;;;;;;4976712;28;20038;-63
2023/10/02 14:48:20;;;;;;;6.32;2.90;;;;;;;;;;4991929;28;20593;-63
2023/10/02 14:50:47;;;;;;;6.43;3.10;;;;;;;;;;4984160;28;20054;-62
2023/10/02 14:53:14;;;;;;;6.43;2.90;;;;;;;;;;4979634;28;20042;-63
2023/10/02 14:55:45;;;;;;;8.40;3.20;;;;;;;;;;4981484;28;20046;-63
2023/10/02 14:58:12;;;;;;;7.32;2.90;;;;;;;;;;4981299;28;20057;-64
2023/10/02 15:00:38;;;;;;;4.70;2.85;;;;;;;;;;4980390;28;20125;-63
2023/10/02 15:03:05;;;;;;;6.20;3.05;;;;;;;;;;4981302;28;20125;-62
2023/10/02 15:05:32;;;;;;;6.40;2.90;;;;;;;;;;4980269;28;20107;-64
2023/10/02 15:08:00;;;;;;;5.32;2.97;;;;;;;;;;4979526;28;20526;-63
2023/10/02 15:10:32;;;;;;;4.93;2.45;;;;;;;;;;4979045;28;20045;-64
2023/10/02 15:12:58;;;;;;;6.50;2.88;;;;;;;;;;4980084;28;20483;-61
2023/10/02 15:15:28;;;;;;;7.28;2.75;;;;;;;;;;4978756;28;20080;-65
2023/10/02 15:17:57;;;;;;;6.13;2.53;;;;;;;;;;4976891;28;20060;-63
2023/10/02 15:20:25;;;;;;;5.93;2.50;;;;;;;;;;4979451;28;20498;-63
2023/10/02 15:22:53;;;;;;;4.90;2.70;;;;;;;;;;4995384;28;20495;-62
2023/10/02 15:25:20;;;;;;;8.90;2.58;;;;;;;;;;4980769;28;20173;-61
2023/10/02 15:27:47;;;;;;;4.75;2.42;;;;;;;;;;4980353;28;21238;-63
2023/10/02 15:30:17;;;;;;;6.10;2.80;;;;;;;;;;4979294;28;20045;-65
2023/10/02 15:32:47;;;;;;;4.85;2.08;;;;;;;;;;4979232;28;20038;-62
2023/10/02 15:35:16;;;;;;;7.88;2.08;;;;;;;;;;4979689;28;20115;-64
2023/10/02 15:37:48;;;;;;;5.40;2.42;;;;;;;;;;4979383;28;20057;-65
2023/10/02 15:40:20;;;;;;;5.83;1.90;;;;;;;;;;4980300;28;20408;-64
2023/10/02 15:42:47;;;;;;;6.15;2.25;;;;;;;;;;4987014;28;20041;-65
2023/10/02 15:45:16;;;;;;;4.22;2.00;;;;;;;;;;4980558;28;20120;-62
2023/10/02 15:47:47;;;;;;;10.70;1.85;;;;;;;;;;4979105;28;20049;-63
2023/10/02 15:50:14;;;;;;;5.13;2.08;;;;;;;;;;4979002;28;20049;-62
2023/10/02 15:52:41;;;;;;;5.97;2.13;;;;;;;;;;4978527;28;20053;-64
2023/10/02 15:55:09;;;;;;;4.40;1.70;;;;;;;;;;4980089;28;20042;-63
2023/10/02 15:57:40;;;;;;;5.38;1.77;;;;;;;;;;4993442;28;20050;-63
2023/10/02 16:00:11;;;;;;;4.90;1.90;;;;;;;;;;4979921;28;21448;-64
2023/10/02 16:02:38;;;;;;;7.75;2.20;;;;;;;;;;4980546;28;20057;-62
2023/10/02 16:05:05;;;;;;;4.93;1.92;;;;;;;;;;4979990;28;20435;-64
2023/10/02 16:07:35;;;;;;;5.25;2.03;;;;;;;;;;4979846;28;20042;-62
2023/10/02 16:10:06;;;;;;;6.50;1.95;;;;;;;;;;4979411;28;20042;-63